Flight Track Log - Related Links

Times and Time Zones

All times are in EDT time to prevent confusion due to time zone crossing. See the UAL4234 flight status page for this flight to view local times or setup timezone preferences in your user account.

Time Position Orientation Groundspeed Altitude Reporting Facility
EDT Latitude Longitude Course Direction KTS MPH feet Rate Location/Type
Sat 05:02:42 PM 29.9639 -95.3458 97° East 167 192 600  Level Houston Center
Sat 05:03:43 PM 29.9511 -95.3883 251° West 239 275 3,000 1,978 Climbing Houston Center
Sat 05:04:13 PM 29.9717 -95.3908 354° North 258 297 3,600 1,082 Climbing Houston Center
Sat 05:04:44 PM 30.0119 -95.3642 30° Northeast 255 293 4,100 1,742 Climbing Houston Center
Sat 05:05:15 PM 30.0422 -95.3397 35° Northeast 252 290 5,400 2,516 Climbing Houston Center
Sat 05:05:46 PM 30.0747 -95.3156 33° Northeast 275 316 6,700 2,323 Climbing Houston Center
Sat 05:06:00 PM 29.9117 -94.8072 95° East  Level FlightAware Approximate
Sat 05:06:17 PM 30.1067 -95.2892 36° Northeast 274 315 7,800  Level Houston Center
Sat 05:07:00 PM 29.9007 -94.6746 95° East  Level FlightAware Approximate
Sat 05:07:18 PM 30.1461 -95.2147 58° Northeast 292 336 10,700  Level Houston Center
Sat 05:08:00 PM 29.8863 -94.5425 97° East  Level FlightAware Approximate
Sat 05:08:20 PM 30.1233 -95.1181 105° East 309 356 12,200  Level Houston Center
Sat 05:09:22 PM 30.1103 -95.0117 98° East 331 381 14,700 2,081 Climbing Houston Center
Sat 05:10:24 PM 30.1011 -94.9072 96° East 328 377 16,500 1,452 Climbing Houston Center
Sat 05:11:26 PM 30.0936 -94.7936 94° East 349 402 17,700 1,589 Climbing Houston Center
Sat 05:13:29 PM 30.1097 -94.5333 86° East 372 428 21,400 1,492 Climbing Houston Center
Sat 05:14:31 PM 30.1247 -94.4122 82° East 389 448 22,300 774 Climbing Houston Center
Sat 05:15:33 PM 30.1406 -94.2797 82° East 411 473 23,000 774 Climbing Houston Center
Sat 05:16:35 PM 30.1578 -94.1403 82° East 435 501 23,900 1,220 Climbing Houston Center
Sat 05:17:36 PM 30.1742 -94.0031 82° East 434 499 25,500 1,805 Climbing Houston Center
Sat 05:18:38 PM 30.1933 -93.8436 82° East 421 484 27,600 1,790 Climbing Houston Center
Sat 05:19:40 PM 30.2083 -93.7153 82° East 409 471 29,200 1,355 Climbing Houston Center
Sat 05:20:42 PM 30.2225 -93.5881 83° East 407 468 30,400 1,161 Climbing Houston Center
Sat 05:21:44 PM 30.2361 -93.4592 83° East 413 475 31,600 1,317 Climbing Houston Center
Sat 05:22:45 PM 30.2553 -93.3042 82° East 415 478 33,100 1,317 Climbing Houston Center
Sat 05:23:47 PM 30.2703 -93.1761 82° East 408 470 34,300 919 Climbing Houston Center
Sat 05:24:49 PM 30.2847 -93.0472 83° East 408 470 35,000 341 Climbing Houston Center
Sat 05:25:50 PM 30.2997 -92.9111 83° East 425 489 35,000  Level Houston Center
Sat 05:26:52 PM 30.3172 -92.7653 82° East 450 518 35,000  Level Houston Center
Sat 05:27:54 PM 30.3333 -92.6133 83° East 469 540 35,000  Level Houston Center
Sat 05:28:56 PM 30.3508 -92.4569 83° East 486 559 35,000  Level Houston Center
Sat 05:29:57 PM 30.3692 -92.2667 84° East 495 570 35,000  Level Houston Center
Sat 05:30:59 PM 30.3861 -92.1083 83° East 497 572 35,000  Level Houston Center
Sat 05:32:01 PM 30.4033 -91.9525 83° East 493 567 35,000  Level Houston Center
Sat 05:33:02 PM 30.4189 -91.7953 83° East 494 568 35,000  Level Houston Center
Sat 05:34:04 PM 30.4364 -91.6314 83° East 492 566 35,000  Level Houston Center
Sat 05:35:06 PM 30.4522 -91.4728 83° East 496 571 35,000  Level Houston Center
Sat 05:36:08 PM 30.4692 -91.3164 83° East 492 566 35,000  Level Houston Center
Sat 05:37:09 PM 30.4853 -91.1586 83° East 494 568 35,000  Level Houston Center
Sat 05:38:11 PM 30.5025 -90.9717 84° East 489 563 35,000  Level Houston Center
Sat 05:39:13 PM 30.5181 -90.8156 83° East 487 560 35,000  Level Houston Center
Sat 05:40:14 PM 30.5328 -90.6589 84° East 489 563 35,000  Level Houston Center
Sat 05:41:16 PM 30.5464 -90.5042 84° East 485 558 35,000  Level Houston Center
Sat 05:42:18 PM 30.5597 -90.3483 84° East 485 558 35,000  Level Houston Center
Sat 05:43:19 PM 30.5742 -90.1931 84° East 483 556 35,000  Level Houston Center
Sat 05:44:22 PM 30.5881 -90.0378 84° East 482 555 35,000  Level Houston Center
Sat 05:45:23 PM 30.6028 -89.8817 84° East 482 555 35,000  Level Houston Center
Sat 05:46:24 PM 30.6156 -89.7244 85° East 483 556 35,000  Level Houston Center
Sat 05:47:26 PM 30.6294 -89.5694 84° East 480 552 35,000 290 Level Houston Center
Sat 05:48:28 PM 30.6439 -89.3847 85° East 476 548 35,600 878 Climbing Houston Center
Sat 05:49:29 PM 30.6567 -89.2339 84° East 468 539 36,800 683 Climbing Houston Center
Sat 05:50:31 PM 30.6678 -89.0867 85° East 460 529 37,000 98 Climbing Houston Center
Sat 05:51:32 PM 30.6803 -88.9358 84° East 468 539 37,000  Level Houston Center
Sat 05:52:34 PM 30.6922 -88.7661 85° East 477 549 37,000  Level Houston Center
Sat 05:53:36 PM 30.7044 -88.6114 85° East 482 555 37,000  Level Houston Center
Sat 05:54:37 PM 30.7156 -88.4711 85° East 483 556 37,000 -49 Level Houston Center
Sat 05:55:39 PM 30.7547 -88.3242 73° East 485 558 36,900  Descending Houston Center
Sat 05:56:40 PM 30.8556 -88.1831 50° Northeast 476 548 37,000 49 Climbing Houston Center
Sat 05:57:42 PM 30.9436 -88.0669 48° Northeast 479 551 37,000  Level Houston Center
Sat 05:58:44 PM 31.0311 -87.9511 49° Northeast 478 550 37,000  Level Houston Center
Sat 05:59:45 PM 31.1181 -87.8350 49° Northeast 474 545 37,000  Level Houston Center
Sat 06:00:47 PM 31.2039 -87.7178 49° Northeast 475 547 37,000  Level Houston Center
Sat 06:01:48 PM 31.2922 -87.5992 49° Northeast 477 549 37,000  Level Houston Center
Sat 06:02:41 PM 31.3814 -87.4853 47° Northeast 472 543 37,000  Level Atlanta Center
Sat 06:03:41 PM 31.4681 -87.3669 49° Northeast 472 543 37,000  Level Atlanta Center
Sat 06:04:41 PM 31.5547 -87.2508 49° Northeast 472 543 37,000  Level Atlanta Center
Sat 06:05:41 PM 31.6411 -87.1294 50° Northeast 472 543 37,000  Level Atlanta Center
Sat 06:06:41 PM 31.7269 -87.0394 42° Northeast 466 536 37,000  Level Atlanta Center
Sat 06:07:41 PM 31.8294 -86.9428 39° Northeast 455 524 37,000  Level Atlanta Center
Sat 06:08:41 PM 31.9297 -86.8456 39° Northeast 460 529 37,000  Level Atlanta Center
Sat 06:09:41 PM 32.0342 -86.7486 38° Northeast 465 535 37,000  Level Atlanta Center
Sat 06:10:41 PM 32.1492 -86.6417 38° Northeast 474 545 37,000  Level Atlanta Center
Sat 06:11:41 PM 32.2125 -86.5083 61° Northeast 463 533 37,000  Level Atlanta Center
Sat 06:12:41 PM 32.2572 -86.3550 71° East 464 534 37,000  Level Atlanta Center
Sat 06:13:41 PM 32.3017 -86.2061 71° East 471 542 37,000  Level Atlanta Center
Sat 06:14:41 PM 32.3519 -86.0600 68° East 478 550 37,000  Level Atlanta Center
Sat 06:15:41 PM 32.3981 -85.9158 69° East 473 544 37,000  Level Atlanta Center
Sat 06:16:41 PM 32.4442 -85.7742 69° East 468 539 37,000  Level Atlanta Center
Sat 06:17:41 PM 32.4942 -85.6222 69° East 469 540 37,000  Level Atlanta Center
Sat 06:18:41 PM 32.5417 -85.4803 68° East 469 540 37,000  Level Atlanta Center
Sat 06:19:41 PM 32.5914 -85.3331 68° East 469 540 37,000  Level Atlanta Center
Sat 06:20:41 PM 32.6367 -85.1833 70° East 469 540 37,000  Level Atlanta Center
Sat 06:21:41 PM 32.6797 -85.0283 72° East 474 545 37,000  Level Atlanta Center
Sat 06:22:41 PM 32.7311 -84.8858 67° East 480 552 37,000  Level Atlanta Center
Sat 06:23:41 PM 32.7736 -84.7406 71° East 473 544 37,000  Level Atlanta Center
Sat 06:24:41 PM 32.8139 -84.6072 70° East 468 539 37,000  Level Atlanta Center
Sat 06:25:41 PM 32.8625 -84.4567 69° East 473 544 37,000  Level Atlanta Center
Sat 06:26:41 PM 32.9111 -84.2961 70° East 468 539 37,000  Level Atlanta Center
Sat 06:27:41 PM 32.9572 -84.1503 69° East 468 539 37,000  Level Atlanta Center
Sat 06:28:41 PM 33.0011 -84.0042 70° East 468 539 37,000  Level Atlanta Center
Sat 06:29:41 PM 33.0469 -83.8556 70° East 468 539 37,000  Level Atlanta Center
Sat 06:30:41 PM 33.0925 -83.7114 69° East 468 539 37,000  Level Atlanta Center
Sat 06:31:41 PM 33.1339 -83.5675 71° East 468 539 37,000 -450 Level Atlanta Center
Sat 06:32:41 PM 33.1789 -83.4208 70° East 463 533 36,100 -950 Descending Atlanta Center
Sat 06:33:41 PM 33.2219 -83.2739 71° East 463 533 35,100 -850 Descending Atlanta Center
Sat 06:34:41 PM 33.2650 -83.1319 70° East 463 533 34,400 -850 Descending Atlanta Center
Sat 06:35:41 PM 33.3075 -82.9850 71° East 463 533 33,400 -700 Descending Atlanta Center
Sat 06:36:41 PM 33.3500 -82.8403 71° East 463 533 33,000 -134 Descending Atlanta Center
Sat 06:38:40 PM 33.4647 -82.6086 59° Northeast 430 495 33,000  Level Jacksonville Center
Sat 06:39:40 PM 33.5311 -82.4839 57° Northeast 430 495 33,000  Level Jacksonville Center
Sat 06:40:40 PM 33.5972 -82.3564 58° Northeast 435 501 33,000  Level Jacksonville Center
Sat 06:41:40 PM 33.6739 -82.2136 57° Northeast 444 511 33,000  Level Jacksonville Center
Sat 06:42:40 PM 33.7461 -82.0858 56° Northeast 454 522 33,000  Level Jacksonville Center
Sat 06:43:40 PM 33.8142 -81.9553 58° Northeast 459 528 33,000  Level Jacksonville Center
Sat 06:44:40 PM 33.8842 -81.8244 57° Northeast 459 528 33,000 -150 Level Jacksonville Center
Sat 06:45:40 PM 33.9517 -81.6883 59° Northeast 459 528 32,700 -650 Descending Jacksonville Center
Sat 06:46:40 PM 34.0192 -81.5597 58° Northeast 459 528 31,700 -1,000 Descending Jacksonville Center
Sat 06:47:40 PM 34.0867 -81.4333 57° Northeast 454 522 30,700 -1,100 Descending Jacksonville Center
Sat 06:48:40 PM 34.1539 -81.3042 58° Northeast 454 522 29,500 -1,250 Descending Jacksonville Center
Sat 06:49:40 PM 34.2211 -81.1722 58° Northeast 459 528 28,200 -1,150 Descending Jacksonville Center
Sat 06:50:40 PM 34.2758 -81.0633 59° Northeast 459 528 27,200 -600 Descending Jacksonville Center
Sat 06:51:40 PM 34.3508 -80.9208 57° Northeast 464 534 27,000 -400 Descending Jacksonville Center
Sat 06:53:40 PM 34.5003 -80.6275 58° Northeast 471 542 26,000 -698 Descending Jacksonville Center
Sat 06:55:15 PM 34.6022 -80.4186 59° Northeast 478 550 24,500 -962 Descending Washington Center
Sat 06:56:16 PM 34.6703 -80.2839 58° Northeast 473 544 23,500 -744 Descending Washington Center
Sat 06:57:16 PM 34.7381 -80.1464 59° Northeast 473 544 23,000 -250 Descending Washington Center
Sat 06:58:16 PM 34.8178 -80.0242 52° Northeast 467 537 23,000  Level Washington Center
Sat 06:59:17 PM 34.9114 -79.9231 42° Northeast 449 517 23,000  Level Washington Center
Sat 07:00:15 PM 35.0047 -79.8214 42° Northeast 449 517 23,000  Level Washington Center
Sat 07:01:15 PM 35.0981 -79.7172 42° Northeast 449 517 23,000  Level Washington Center
Sat 07:02:15 PM 35.1889 -79.6203 41° Northeast 442 509 23,000 -595 Level Washington Center
Sat 07:03:16 PM 35.2769 -79.5458 35° Northeast 416 479 21,800 -1,700 Descending Washington Center
Sat 07:04:15 PM 35.3622 -79.4889 29° Northeast 376 433 19,600 -2,325 Descending Washington Center
Sat 07:04:36 PM 35.3922 -79.4700 27° Northeast 352 405 18,700 -2,459 Descending Washington Center
Sat 07:05:16 PM 35.4478 -79.4267 32° Northeast 358 412 17,100 -2,164 Descending Washington Center
Sat 07:05:37 PM 35.4797 -79.4103 23° Northeast 354 407 16,500 -2,066 Descending Washington Center
Sat 07:06:17 PM 35.5164 -79.3689 43° Northeast 342 394 15,000 -1,967 Descending Washington Center
Sat 07:06:38 PM 35.5406 -79.3342 49° Northeast 318 366 14,500 -2,000 Descending Washington Center
Sat 07:07:17 PM 35.5736 -79.2769 55° Northeast 312 359 13,000 -1,881 Descending Washington Center
Sat 07:07:45 PM 35.5956 -79.2397 54° Northeast 290 334 12,400 -1,525 Descending Washington Center
Sat 07:08:16 PM 35.6219 -79.1950 54° Northeast 305 351 11,500 -1,433 Descending Washington Center
Sat 07:08:52 PM 35.6483 -79.1500 54° Northeast 294 338 10,800 -1,100 Descending Washington Center
Sat 07:09:16 PM 35.6681 -79.1153 55° Northeast 293 337 10,400 -1,111 Descending Washington Center
Sat 07:09:46 PM 35.6922 -79.0778 52° Northeast 286 329 9,800 -1,100 Descending Washington Center
Sat 07:10:16 PM 35.7164 -79.0356 55° Northeast 288 331 9,300 -1,000 Descending Washington Center
Sat 07:10:46 PM 35.7361 -79.0031 53° Northeast 279 321 8,800 -984 Descending Washington Center
Sat 07:11:17 PM 35.7600 -78.9656 52° Northeast 277 319 8,300 -787 Descending Washington Center
Sat 07:11:47 PM 35.7797 -78.9333 53° Northeast 250 288 8,000 -300 Descending Washington Center
Sat 07:12:17 PM 35.8056 -78.9036 43° Northeast 258 297 8,000  Level Washington Center
Sat 07:12:41 PM 35.8289 -78.8892 27° Northeast 239 275 8,000 -310 Level Washington Center
Sat 07:13:15 PM 35.8669 -78.8703 22° Northeast 238 274 7,700 -885 Descending Washington Center
Sat 07:13:42 PM 35.8944 -78.8611 15° North 248 285 7,100 -1,379 Descending Washington Center
Sat 07:14:42 PM 35.9439 -78.8067 42° Northeast 231 266 5,700 -1,140 Descending Washington Center
Sat 07:15:43 PM 35.9828 -78.7619 43° Northeast 186 214 4,800 -1,200 Descending Washington Center
Sat 07:16:37 PM 36.0111 -78.7119 55° Northeast 188 216 3,400 -1,190 Descending Washington Center
Sat 07:17:39 PM 35.9656 -78.6972 165° South 162 186 2,500 -871 Descending Washington Center

Login

Don't have an account? Register now (free) for customized features, flight alerts, and more!